Airfield :
LOGIN :

Register | Disclaimer

   EN    FR    IT 

 










Legend :    VFR   Marginal VFR   IFR   Intensive IFR   Very Intensive IFR
Visi :
Ceiling :
>= 8 km
>= 3000ft
5 to 8 km
1000 to 3000 ft
1500m to 5 km
500 to 1000 ft
800 to 1500m
200 to 500 ft
< 800m
< 200 ft
Symbols :   Thunderstorms  Fog  Heavy snow  Heavy precipitations  Wind > 20 kt
SIGMETs :     Misc.  Thunderstorms  Icing  Turbulence  Mountain Waves  Volcanic Ashes






- Airport Elevation : 50 ft
- IATA code : KOI


EGPA - Kirkwall

CURRENT METAR :
  • 072020Z AUTO 21015KT 9999 NCD 10/03 Q1019

EXPIRED METARs :
  • 071950Z AUTO 23018KT 9999 NCD 10/02 Q1019
  • 071920Z AUTO 23017KT 9999 NCD 10/03 Q1019
  • 071850Z AUTO 23018KT 9999 NCD 10/02 Q1019
  • 071820Z AUTO 20015KT 9999 NCD 10/03 Q1019
  • 071750Z AUTO 22013KT 9999 NCD 11/04 Q1019

TAF TAF EGPA
Valid from the 07 at 21:00 until the 08 at 06:00 UTC


071959Z 0721/0806 22015KT 9999 FEW030
PROB40
TEMPO 0721/0803 21020G30KT
TEMPO 0722/0806 6000 RADZ BKN012
PROB40
TEMPO 0801/0806 4000 DZRA BKN006
BECMG 0803/0806 32009KT



MET'MAP, your aeronautical weather chart ! - Copyright ORBIFLY December 2007 - Disclaimer

ORBIFLY MET'MAP TEAM :

Programming & Development : Alexandra Zaïnal
Concept & original design : Baudouin d'Aumeries
Assistance for programming : Marc-Olivier Méhu
Technical & hardware support : Manuel Goepfert

Contact : metmap@orbifly.com




SOURCES & CREDITS :

   NOAA